Time;durP1;ratioP1;P1;durP2;ratioP2;P2;SDS_P1;SDS_P2;PMS_P1;PMS_P2;Temp;Humidity;BMP_temperature;BMP_pressure;BME280_temperature;BME280_humidity;BME280_pressure;Samples;Min_cycle;Max_cycle;Signal;HPM_P1;HPM_P2
2022/07/07 00:01:42;;;;;;;;;;;17.80;99.90;;;;;;5028446;28;19920;-78
2022/07/07 00:04:08;;;;;;;;;;;17.90;99.90;;;;;;5033659;28;19909;-81
2022/07/07 00:06:34;;;;;;;;;;;17.90;99.90;;;;;;5032829;28;19936;-75
2022/07/07 00:08:59;;;;;;;;;;;18.00;99.90;;;;;;5025985;28;20562;-80
2022/07/07 00:11:26;;;;;;;;;;;18.00;99.90;;;;;;5032731;28;20223;-77
2022/07/07 00:13:52;;;;;;;;;;;18.00;99.90;;;;;;5032200;28;19921;-77
2022/07/07 00:16:18;;;;;;;;;;;18.00;99.90;;;;;;5033046;28;19916;-83
2022/07/07 00:18:44;;;;;;;;;;;18.00;99.90;;;;;;5026321;28;19936;-78
2022/07/07 00:21:09;;;;;;;;;;;18.10;99.90;;;;;;5020551;28;19922;-76
2022/07/07 00:23:35;;;;;;;;;;;18.10;99.90;;;;;;5030033;28;20525;-77
2022/07/07 00:26:01;;;;;;;;;;;18.10;99.90;;;;;;5034589;28;19921;-82
2022/07/07 00:28:26;;;;;;;;;;;18.10;99.90;;;;;;5032451;28;19963;-79
2022/07/07 00:30:52;;;;;;;;;;;18.10;99.90;;;;;;5021282;28;19913;-77
2022/07/07 00:33:17;;;;;;;;;;;18.10;99.90;;;;;;5033158;28;19913;-77
2022/07/07 00:35:43;;;;;;;;;;;18.10;99.90;;;;;;5033592;28;19909;-79
2022/07/07 00:38:09;;;;;;;;;;;18.10;99.90;;;;;;5033962;28;19920;-80
2022/07/07 00:40:34;;;;;;;;;;;18.10;99.90;;;;;;5031352;28;19960;-78
2022/07/07 00:43:00;;;;;;;;;;;18.10;99.90;;;;;;5035201;28;19996;-78
2022/07/07 00:45:26;;;;;;;;;;;18.10;99.90;;;;;;5034995;28;20212;-76
2022/07/07 00:47:52;;;;;;;;;;;18.10;99.90;;;;;;5031935;28;19918;-77
2022/07/07 00:50:18;;;;;;;;;;;18.00;99.90;;;;;;5033106;28;19924;-79
2022/07/07 00:52:43;;;;;;;;;;;18.00;99.90;;;;;;5032484;28;19996;-77
2022/07/07 00:55:09;;;;;;;;;;;17.90;99.90;;;;;;5028677;28;20135;-82
2022/07/07 00:57:35;;;;;;;;;;;17.90;99.90;;;;;;5034611;28;19913;-75
2022/07/07 01:00:04;;;;;;;;;;;17.80;99.90;;;;;;5032797;28;19986;-78
2022/07/07 01:02:30;;;;;;;;;;;17.70;99.90;;;;;;5028203;28;19928;-75
2022/07/07 01:04:58;;;;;;;;;;;17.60;99.90;;;;;;5033382;28;19916;-76
2022/07/07 01:07:23;;;;;;;;;;;17.60;99.90;;;;;;5013314;28;19922;-76
2022/07/07 01:09:49;;;;;;;;;;;17.30;99.90;;;;;;5026565;28;19925;-76
2022/07/07 01:12:14;;;;;;;;;;;17.10;99.90;;;;;;5031295;28;19927;-78
2022/07/07 01:14:40;;;;;;;;;;;17.00;99.90;;;;;;5032118;28;19920;-74
2022/07/07 01:17:05;;;;;;;;;;;16.80;99.90;;;;;;5034508;28;19940;-79
2022/07/07 01:19:31;;;;;;;;;;;16.60;99.90;;;;;;5032845;28;19909;-76
2022/07/07 01:21:58;;;;;;;;;;;16.50;99.90;;;;;;5031990;28;19967;-77
2022/07/07 01:24:24;;;;;;;;;;;16.50;99.90;;;;;;5033662;28;19909;-75
2022/07/07 01:27:02;;;;;;;;;;;16.40;99.90;;;;;;5065865;28;19913;-75
2022/07/07 01:29:28;;;;;;;;;;;16.40;99.90;;;;;;5026767;28;19920;-76
2022/07/07 01:31:57;;;;;;;;;;;16.40;99.90;;;;;;5026941;28;20216;-77
2022/07/07 01:34:23;;;;;;;;;;;16.40;99.90;;;;;;5021728;28;20000;-75
2022/07/07 01:36:49;;;;;;;;;;;16.50;99.90;;;;;;5020425;28;20281;-75
2022/07/07 01:39:14;;;;;;;;;;;16.40;99.90;;;;;;5033291;28;19913;-75
2022/07/07 01:41:40;;;;;;;;;;;16.40;99.90;;;;;;5046667;28;19916;-78
2022/07/07 01:44:05;;;;;;;;;;;16.40;99.90;;;;;;5028813;28;19933;-77
2022/07/07 01:46:31;;;;;;;;;;;16.40;99.90;;;;;;5022643;28;19996;-75
2022/07/07 01:48:56;;;;;;;;;;;16.40;99.90;;;;;;5014899;28;19936;-78
2022/07/07 01:51:22;;;;;;;;;;;16.40;99.90;;;;;;5028620;28;20484;-77
2022/07/07 01:53:47;;;;;;;;;;;16.40;99.90;;;;;;5037454;28;19932;-75
2022/07/07 01:56:13;;;;;;;;;;;16.40;99.90;;;;;;5037920;28;20410;-79
2022/07/07 01:58:38;;;;;;;;;;;16.30;99.90;;;;;;5036434;28;20494;-76
2022/07/07 02:01:04;;;;;;;;;;;16.30;99.90;;;;;;5037150;28;19992;-79
2022/07/07 02:03:29;;;;;;;;;;;16.30;99.90;;;;;;5027579;28;19909;-75
2022/07/07 02:05:55;;;;;;;;;;;16.30;99.90;;;;;;5030067;28;19972;-76
2022/07/07 02:08:20;;;;;;;;;;;16.30;99.90;;;;;;5037037;28;20340;-75
2022/07/07 02:13:31;;;;;;;;;;;16.30;99.90;;;;;;5034062;28;19943;-74
2022/07/07 02:15:56;;;;;;;;;;;16.30;99.90;;;;;;5035845;28;19917;-76
2022/07/07 02:18:22;;;;;;;;;;;16.40;99.90;;;;;;5028944;28;19917;-77
2022/07/07 02:20:47;;;;;;;;;;;16.40;99.90;;;;;;5037200;28;19928;-78
2022/07/07 02:23:13;;;;;;;;;;;16.40;99.90;;;;;;5035291;28;19924;-76
2022/07/07 02:25:39;;;;;;;;;;;16.30;99.90;;;;;;5035526;28;19917;-74
2022/07/07 02:28:04;;;;;;;;;;;16.30;99.90;;;;;;5035495;28;19924;-79
2022/07/07 02:30:31;;;;;;;;;;;16.30;99.90;;;;;;5037354;28;19920;-75
2022/07/07 02:32:57;;;;;;;;;;;16.30;99.90;;;;;;5029979;28;20371;-77
2022/07/07 02:35:22;;;;;;;;;;;16.30;99.90;;;;;;5035099;28;20324;-75
2022/07/07 02:37:48;;;;;;;;;;;16.30;99.90;;;;;;5028619;28;19944;-77
2022/07/07 02:40:13;;;;;;;;;;;16.30;99.90;;;;;;5035054;28;19917;-76
2022/07/07 02:42:39;;;;;;;;;;;16.30;99.90;;;;;;5034066;28;19952;-76
2022/07/07 02:45:05;;;;;;;;;;;16.40;99.90;;;;;;5033969;28;19971;-75
2022/07/07 02:47:30;;;;;;;;;;;16.40;99.90;;;;;;5035101;28;20016;-76
2022/07/07 02:49:56;;;;;;;;;;;16.40;99.90;;;;;;5035939;28;19917;-76
2022/07/07 02:52:21;;;;;;;;;;;16.40;99.90;;;;;;5035235;28;20267;-76
2022/07/07 02:54:47;;;;;;;;;;;16.50;99.90;;;;;;5034942;28;19914;-77
2022/07/07 02:57:13;;;;;;;;;;;16.50;99.90;;;;;;5031945;28;19913;-80
2022/07/07 02:59:38;;;;;;;;;;;16.40;99.90;;;;;;5042466;28;19924;-78
2022/07/07 03:02:04;;;;;;;;;;;16.30;99.90;;;;;;5033633;28;19917;-79
2022/07/07 03:04:29;;;;;;;;;;;16.30;99.90;;;;;;5022768;28;20224;-76
2022/07/07 03:06:55;;;;;;;;;;;16.30;99.90;;;;;;5018731;28;19921;-83
2022/07/07 03:09:20;;;;;;;;;;;16.20;99.90;;;;;;5047397;28;19924;-78
2022/07/07 03:11:46;;;;;;;;;;;16.20;99.90;;;;;;5033606;28;19924;-82
2022/07/07 03:14:11;;;;;;;;;;;16.20;99.90;;;;;;5032848;28;20379;-77
2022/07/07 03:16:37;;;;;;;;;;;16.20;99.90;;;;;;5021490;28;19983;-81
2022/07/07 03:19:03;;;;;;;;;;;16.20;99.90;;;;;;5030230;28;20197;-78
2022/07/07 03:21:28;;;;;;;;;;;16.10;99.90;;;;;;5033740;28;19917;-79
2022/07/07 03:23:54;;;;;;;;;;;16.10;99.90;;;;;;5019957;28;20590;-78
2022/07/07 03:26:19;;;;;;;;;;;16.10;99.90;;;;;;5022543;28;19916;-75
2022/07/07 03:28:45;;;;;;;;;;;16.10;99.90;;;;;;5015631;28;19913;-79
2022/07/07 03:31:10;;;;;;;;;;;16.00;99.90;;;;;;5033243;28;19967;-79
2022/07/07 03:33:36;;;;;;;;;;;15.90;99.90;;;;;;5030578;28;19914;-80
2022/07/07 03:36:02;;;;;;;;;;;15.90;99.90;;;;;;5033256;28;19928;-78
2022/07/07 03:38:27;;;;;;;;;;;15.90;99.90;;;;;;5034948;28;19916;-79
2022/07/07 03:40:53;;;;;;;;;;;15.80;99.90;;;;;;5030837;28;19913;-79
2022/07/07 03:43:20;;;;;;;;;;;15.80;99.90;;;;;;5034849;28;19982;-81
2022/07/07 03:45:45;;;;;;;;;;;15.80;99.90;;;;;;5032569;28;19910;-77
2022/07/07 03:48:11;;;;;;;;;;;15.80;99.90;;;;;;5034339;28;19916;-78
2022/07/07 03:50:37;;;;;;;;;;;15.80;99.90;;;;;;5032410;28;20028;-76
2022/07/07 03:53:02;;;;;;;;;;;15.80;99.90;;;;;;5028099;28;20348;-81
2022/07/07 03:55:28;;;;;;;;;;;15.80;99.90;;;;;;5034756;28;19936;-79
2022/07/07 03:57:54;;;;;;;;;;;15.90;99.90;;;;;;5032694;28;19924;-81
2022/07/07 04:00:19;;;;;;;;;;;15.80;99.90;;;;;;5028479;28;19922;-79
2022/07/07 04:02:45;;;;;;;;;;;15.80;99.90;;;;;;5032896;28;20029;-85
2022/07/07 04:05:10;;;;;;;;;;;15.80;99.90;;;;;;5032097;28;19920;-75
2022/07/07 04:07:36;;;;;;;;;;;15.80;99.90;;;;;;5033529;28;19913;-77
2022/07/07 04:10:02;;;;;;;;;;;15.80;99.90;;;;;;5035725;28;19917;-86
2022/07/07 04:12:28;;;;;;;;;;;15.80;99.90;;;;;;5026413;28;19937;-78
2022/07/07 04:14:54;;;;;;;;;;;15.80;99.90;;;;;;5027750;28;19921;-79
2022/07/07 04:17:20;;;;;;;;;;;15.80;99.90;;;;;;5029754;28;19929;-82
2022/07/07 04:19:46;;;;;;;;;;;15.70;99.90;;;;;;5026130;28;19914;-74
2022/07/07 04:22:11;;;;;;;;;;;15.70;99.90;;;;;;5032828;28;20308;-75
2022/07/07 04:24:37;;;;;;;;;;;15.70;99.90;;;;;;5030285;28;19980;-76
2022/07/07 04:27:03;;;;;;;;;;;15.60;99.90;;;;;;5032130;28;19935;-74
2022/07/07 04:29:29;;;;;;;;;;;15.60;99.90;;;;;;5031206;28;19960;-75
2022/07/07 04:31:54;;;;;;;;;;;15.60;99.90;;;;;;5033670;28;20386;-75
2022/07/07 04:34:22;;;;;;;;;;;15.50;99.90;;;;;;5033552;28;19913;-76
2022/07/07 04:36:47;;;;;;;;;;;15.60;99.90;;;;;;5031841;28;19913;-75
2022/07/07 04:39:13;;;;;;;;;;;15.50;99.90;;;;;;5034515;28;19913;-76
2022/07/07 04:41:38;;;;;;;;;;;15.60;99.90;;;;;;5033978;28;20438;-77
2022/07/07 04:44:05;;;;;;;;;;;15.60;99.90;;;;;;5033244;28;19917;-75
2022/07/07 04:46:31;;;;;;;;;;;15.60;99.90;;;;;;5031964;28;20004;-77
2022/07/07 04:48:56;;;;;;;;;;;15.60;99.90;;;;;;5023118;28;20024;-76
2022/07/07 04:51:23;;;;;;;;;;;15.70;99.90;;;;;;5031443;28;19921;-76
2022/07/07 04:53:49;;;;;;;;;;;15.70;99.90;;;;;;5032529;28;19920;-78
2022/07/07 04:56:14;;;;;;;;;;;15.70;99.90;;;;;;5031382;28;20255;-76
2022/07/07 04:58:41;;;;;;;;;;;15.70;99.90;;;;;;5064254;28;19921;-76
2022/07/07 05:01:07;;;;;;;;;;;15.70;99.90;;;;;;5032193;28;20232;-77
2022/07/07 05:03:33;;;;;;;;;;;15.70;99.90;;;;;;5032334;28;19913;-81
2022/07/07 05:05:58;;;;;;;;;;;15.70;99.90;;;;;;5030467;28;19917;-76
2022/07/07 05:08:24;;;;;;;;;;;15.70;99.90;;;;;;5032242;28;19917;-78
2022/07/07 05:10:50;;;;;;;;;;;15.70;99.90;;;;;;5032381;28;20328;-79
2022/07/07 05:13:15;;;;;;;;;;;15.70;99.90;;;;;;5030519;28;19921;-77
2022/07/07 05:15:41;;;;;;;;;;;15.60;99.90;;;;;;5033525;28;19944;-77
2022/07/07 05:18:06;;;;;;;;;;;15.60;99.90;;;;;;5031140;28;19913;-76
2022/07/07 05:20:32;;;;;;;;;;;15.50;99.90;;;;;;5031905;28;19956;-75
2022/07/07 05:22:57;;;;;;;;;;;15.60;99.90;;;;;;5031900;28;19913;-77
2022/07/07 05:25:23;;;;;;;;;;;15.60;99.90;;;;;;5030036;28;19940;-77
2022/07/07 05:27:48;;;;;;;;;;;15.50;99.90;;;;;;5031952;28;19990;-77
2022/07/07 05:30:14;;;;;;;;;;;15.40;99.90;;;;;;5049194;28;19921;-75
2022/07/07 05:32:40;;;;;;;;;;;15.30;99.90;;;;;;5033851;28;19917;-76
2022/07/07 05:35:06;;;;;;;;;;;15.30;99.90;;;;;;5035401;28;19968;-77
2022/07/07 05:37:31;;;;;;;;;;;15.20;99.90;;;;;;5036334;28;20224;-81
2022/07/07 05:39:57;;;;;;;;;;;15.30;99.90;;;;;;5034675;28;19914;-78
2022/07/07 05:42:22;;;;;;;;;;;15.30;99.90;;;;;;5034424;28;20271;-81
2022/07/07 05:44:48;;;;;;;;;;;15.30;99.90;;;;;;5034304;28;19913;-79
2022/07/07 05:47:13;;;;;;;;;;;15.40;99.90;;;;;;5051592;28;19917;-79
2022/07/07 05:49:39;;;;;;;;;;;15.40;99.90;;;;;;5035921;28;19996;-76
2022/07/07 05:52:05;;;;;;;;;;;15.50;99.90;;;;;;5034133;28;19924;-78
2022/07/07 05:54:30;;;;;;;;;;;15.70;99.90;;;;;;5035660;28;19909;-78
2022/07/07 05:56:56;;;;;;;;;;;15.80;99.90;;;;;;5035352;28;20256;-80
2022/07/07 05:59:21;;;;;;;;;;;15.90;99.90;;;;;;5037178;28;20007;-76
2022/07/07 06:01:47;;;;;;;;;;;16.00;99.90;;;;;;5035575;28;19913;-82
2022/07/07 06:04:12;;;;;;;;;;;16.20;99.90;;;;;;5032604;28;19917;-81
2022/07/07 06:06:38;;;;;;;;;;;16.10;99.90;;;;;;5034702;28;20194;-77
2022/07/07 06:09:03;;;;;;;;;;;16.00;99.90;;;;;;5024031;28;20584;-77
2022/07/07 06:11:29;;;;;;;;;;;15.40;99.90;;;;;;5032536;28;20351;-79
2022/07/07 06:13:54;;;;;;;;;;;14.90;99.90;;;;;;5035062;28;19913;-76
2022/07/07 06:16:38;;;;;;;;;;;14.90;99.90;;;;;;5033944;28;20004;-75
2022/07/07 06:19:08;;;;;;;;;;;14.90;99.90;;;;;;5033062;28;19920;-78
2022/07/07 06:21:34;;;;;;;;;;;15.00;99.90;;;;;;5029732;28;19924;-80
2022/07/07 06:23:59;;;;;;;;;;;15.10;99.90;;;;;;5033401;28;19921;-75
2022/07/07 06:26:25;;;;;;;;;;;15.20;99.90;;;;;;5033624;28;19960;-77
2022/07/07 06:28:50;;;;;;;;;;;15.50;99.90;;;;;;5035093;28;19917;-82
2022/07/07 06:31:16;;;;;;;;;;;15.60;99.90;;;;;;5038566;28;19917;-74
2022/07/07 06:33:41;;;;;;;;;;;15.60;99.90;;;;;;5035073;28;19909;-79
2022/07/07 06:36:07;;;;;;;;;;;15.70;99.90;;;;;;5034569;28;19916;-78
2022/07/07 06:38:33;;;;;;;;;;;15.70;99.90;;;;;;5033560;28;20255;-82
2022/07/07 06:40:59;;;;;;;;;;;15.60;99.90;;;;;;5034569;28;20308;-74
2022/07/07 06:43:25;;;;;;;;;;;15.60;99.90;;;;;;5029296;28;20309;-77
2022/07/07 06:45:50;;;;;;;;;;;15.40;99.90;;;;;;5036139;28;19920;-76
2022/07/07 06:48:16;;;;;;;;;;;15.40;99.90;;;;;;5031934;28;19913;-77
2022/07/07 06:50:41;;;;;;;;;;;15.50;99.90;;;;;;5026659;28;19925;-78
2022/07/07 06:53:07;;;;;;;;;;;15.70;99.90;;;;;;5035528;28;20201;-76
2022/07/07 06:55:33;;;;;;;;;;;16.00;99.90;;;;;;5035237;28;20288;-80
2022/07/07 06:57:58;;;;;;;;;;;16.20;99.90;;;;;;5035633;28;19917;-76
2022/07/07 07:00:24;;;;;;;;;;;16.30;99.90;;;;;;5034609;28;19917;-79
2022/07/07 07:02:50;;;;;;;;;;;16.40;99.90;;;;;;5035086;28;20261;-75
2022/07/07 07:05:16;;;;;;;;;;;16.20;99.90;;;;;;5035329;28;19967;-80
2022/07/07 07:07:42;;;;;;;;;;;16.10;99.90;;;;;;5032758;28;19913;-78
2022/07/07 07:10:08;;;;;;;;;;;16.10;99.90;;;;;;5033242;28;20318;-78
2022/07/07 07:12:34;;;;;;;;;;;16.20;99.90;;;;;;5033036;28;19925;-81
2022/07/07 07:14:59;;;;;;;;;;;16.10;99.90;;;;;;5034622;28;20030;-77
2022/07/07 07:17:25;;;;;;;;;;;16.10;99.90;;;;;;5032710;28;19975;-78
2022/07/07 07:19:51;;;;;;;;;;;16.10;99.90;;;;;;5030195;28;19996;-75
2022/07/07 07:22:17;;;;;;;;;;;16.20;99.90;;;;;;5034071;28;19963;-77
2022/07/07 07:24:43;;;;;;;;;;;16.30;99.90;;;;;;5030627;28;19988;-75
2022/07/07 07:27:08;;;;;;;;;;;16.40;99.90;;;;;;5035943;28;19995;-78
2022/07/07 07:29:34;;;;;;;;;;;16.50;99.90;;;;;;5036010;28;19921;-77
2022/07/07 07:32:00;;;;;;;;;;;16.50;99.90;;;;;;5035319;28;19913;-81
2022/07/07 07:34:25;;;;;;;;;;;16.40;99.90;;;;;;5005963;28;20296;-81
2022/07/07 07:36:51;;;;;;;;;;;16.40;99.90;;;;;;5034594;28;19913;-83
2022/07/07 07:39:16;;;;;;;;;;;16.40;99.90;;;;;;5033763;28;20366;-76
2022/07/07 07:41:43;;;;;;;;;;;16.10;99.90;;;;;;5033702;28;19960;-79
2022/07/07 07:44:09;;;;;;;;;;;16.00;99.90;;;;;;5032922;28;20410;-76
2022/07/07 07:46:35;;;;;;;;;;;15.90;99.90;;;;;;5031568;28;19923;-78
2022/07/07 07:49:05;;;;;;;;;;;16.00;99.90;;;;;;5032883;28;19917;-78
2022/07/07 07:51:33;;;;;;;;;;;16.20;99.90;;;;;;5032340;28;19928;-78
2022/07/07 07:53:59;;;;;;;;;;;16.70;99.90;;;;;;5033541;28;20360;-79
2022/07/07 07:56:25;;;;;;;;;;;16.50;99.90;;;;;;5032406;28;19980;-80
2022/07/07 07:58:50;;;;;;;;;;;16.20;99.90;;;;;;5032594;28;19932;-80
2022/07/07 08:01:16;;;;;;;;;;;15.70;99.90;;;;;;5034092;28;19963;-77
2022/07/07 08:03:41;;;;;;;;;;;15.50;99.90;;;;;;5027820;28;20004;-77
2022/07/07 08:06:07;;;;;;;;;;;15.60;99.90;;;;;;5044649;28;20798;-77
2022/07/07 08:08:32;;;;;;;;;;;15.60;99.90;;;;;;5042462;28;20341;-78
2022/07/07 08:10:58;;;;;;;;;;;15.70;99.90;;;;;;5026806;28;20004;-75
2022/07/07 08:13:24;;;;;;;;;;;15.80;99.90;;;;;;5023197;28;20016;-76
2022/07/07 08:15:50;;;;;;;;;;;16.20;99.90;;;;;;5036221;28;19968;-78
2022/07/07 08:18:15;;;;;;;;;;;16.30;99.90;;;;;;5027037;28;20335;-80
2022/07/07 08:20:41;;;;;;;;;;;16.60;99.90;;;;;;5041359;28;19913;-78
2022/07/07 08:23:06;;;;;;;;;;;16.60;99.90;;;;;;5020719;28;19917;-79
2022/07/07 08:25:33;;;;;;;;;;;16.60;99.90;;;;;;5023055;28;19914;-78
2022/07/07 08:27:59;;;;;;;;;;;16.60;99.90;;;;;;5025677;28;19948;-84
2022/07/07 08:30:25;;;;;;;;;;;16.30;99.90;;;;;;5031574;28;19960;-77
2022/07/07 08:32:50;;;;;;;;;;;16.30;99.90;;;;;;5030215;28;19910;-78
2022/07/07 08:35:16;;;;;;;;;;;16.50;99.90;;;;;;5024755;28;20252;-81
2022/07/07 08:37:42;;;;;;;;;;;16.60;99.90;;;;;;5028888;28;19963;-75
2022/07/07 08:40:08;;;;;;;;;;;16.90;99.90;;;;;;5026591;28;19921;-73
2022/07/07 08:42:34;;;;;;;;;;;16.90;99.90;;;;;;5022027;28;20545;-77
2022/07/07 08:44:59;;;;;;;;;;;16.80;99.90;;;;;;5027779;28;20023;-77
2022/07/07 08:47:25;;;;;;;;;;;17.00;99.90;;;;;;5029710;28;19932;-76
2022/07/07 08:49:51;;;;;;;;;;;17.20;99.90;;;;;;5020933;28;20205;-79
2022/07/07 08:52:17;;;;;;;;;;;16.90;99.90;;;;;;5029755;28;19913;-80
2022/07/07 08:54:42;;;;;;;;;;;16.50;99.90;;;;;;5024602;28;19921;-77
2022/07/07 08:57:08;;;;;;;;;;;16.40;99.90;;;;;;5026519;28;19928;-77
2022/07/07 08:59:34;;;;;;;;;;;16.40;99.90;;;;;;5020488;28;19917;-79
2022/07/07 09:02:00;;;;;;;;;;;16.50;99.90;;;;;;5025835;28;20366;-81
2022/07/07 09:04:27;;;;;;;;;;;16.50;99.90;;;;;;5024140;28;19913;-78
2022/07/07 09:06:53;;;;;;;;;;;16.60;99.90;;;;;;5025021;28;19922;-76
2022/07/07 09:09:36;;;;;;;;;;;16.70;99.90;;;;;;5042695;28;19972;-81
2022/07/07 09:12:03;;;;;;;;;;;16.90;99.90;;;;;;5021774;28;19929;-75
2022/07/07 09:14:35;;;;;;;;;;;17.10;99.90;;;;;;5035892;28;19920;-77
2022/07/07 09:17:01;;;;;;;;;;;17.70;99.90;;;;;;5030185;28;20256;-77
2022/07/07 09:19:26;;;;;;;;;;;18.00;99.90;;;;;;5061123;28;20007;-82
2022/07/07 09:21:52;;;;;;;;;;;18.00;99.90;;;;;;5036610;28;19987;-75
2022/07/07 09:24:18;;;;;;;;;;;18.10;99.90;;;;;;5036851;28;19913;-75
2022/07/07 09:26:45;;;;;;;;;;;17.90;99.90;;;;;;5036240;28;19924;-80
2022/07/07 09:29:15;;;;;;;;;;;17.70;99.90;;;;;;5034343;28;19935;-79
2022/07/07 09:32:00;;;;;;;;;;;17.70;99.90;;;;;;5034435;28;19928;-76
2022/07/07 09:34:26;;;;;;;;;;;17.90;99.90;;;;;;5035368;28;20434;-76
2022/07/07 09:39:43;;;;;;;;;;;17.70;99.90;;;;;;5035632;28;19931;-78
2022/07/07 09:42:18;;;;;;;;;;;17.40;99.90;;;;;;5035463;28;19919;-76
2022/07/07 09:44:45;;;;;;;;;;;17.10;99.90;;;;;;5039472;28;19921;-77
2022/07/07 09:47:10;;;;;;;;;;;16.80;99.90;;;;;;5033701;28;19927;-80
2022/07/07 09:49:40;;;;;;;;;;;16.60;99.90;;;;;;5034897;28;19925;-80
2022/07/07 09:52:16;;;;;;;;;;;16.50;99.90;;;;;;5034758;28;19918;-79
2022/07/07 09:54:45;;;;;;;;;;;16.50;99.90;;;;;;5034744;28;19921;-79
2022/07/07 09:57:11;;;;;;;;;;;16.60;99.90;;;;;;5035648;28;19924;-78
2022/07/07 09:59:36;;;;;;;;;;;16.60;99.90;;;;;;5033375;28;19917;-81
2022/07/07 10:02:02;;;;;;;;;;;16.60;99.90;;;;;;5035469;28;19913;-75
2022/07/07 10:04:28;;;;;;;;;;;16.80;99.90;;;;;;5034357;28;19913;-76
2022/07/07 10:06:54;;;;;;;;;;;17.00;99.90;;;;;;5035437;28;19920;-75
2022/07/07 10:09:21;;;;;;;;;;;17.10;99.90;;;;;;5035828;28;20351;-76
2022/07/07 10:11:49;;;;;;;;;;;16.70;99.90;;;;;;5034988;28;19917;-77
2022/07/07 10:14:15;;;;;;;;;;;16.40;99.90;;;;;;5035287;28;20048;-86
2022/07/07 10:16:42;;;;;;;;;;;16.40;99.90;;;;;;5036654;28;19951;-81
2022/07/07 10:19:09;;;;;;;;;;;16.50;99.90;;;;;;5015987;28;19921;-78
2022/07/07 10:21:34;;;;;;;;;;;16.70;99.90;;;;;;5035433;28;19924;-78
2022/07/07 10:24:00;;;;;;;;;;;17.00;99.90;;;;;;5035673;28;19921;-76
2022/07/07 10:26:39;;;;;;;;;;;17.10;99.90;;;;;;5032978;28;20259;-83
2022/07/07 10:29:06;;;;;;;;;;;17.60;99.90;;;;;;5033208;28;19920;-82
2022/07/07 10:31:32;;;;;;;;;;;17.90;99.90;;;;;;5047763;28;19992;-77
2022/07/07 10:33:59;;;;;;;;;;;18.10;99.90;;;;;;5033865;28;20008;-80
2022/07/07 10:36:25;;;;;;;;;;;18.00;99.90;;;;;;5031779;28;19917;-76
2022/07/07 10:38:52;;;;;;;;;;;18.10;99.90;;;;;;5030822;28;19917;-77
2022/07/07 10:41:25;;;;;;;;;;;18.20;99.90;;;;;;5026258;28;19917;-77
2022/07/07 10:44:13;;;;;;;;;;;17.90;99.90;;;;;;5030945;28;19925;-78
2022/07/07 10:46:39;;;;;;;;;;;17.10;99.90;;;;;;5054119;28;19999;-75
2022/07/07 10:49:11;;;;;;;;;;;16.60;99.90;;;;;;5029738;28;19921;-77
2022/07/07 10:51:54;;;;;;;;;;;16.30;99.90;;;;;;5028319;28;20300;-77
2022/07/07 10:54:36;;;;;;;;;;;16.30;99.90;;;;;;5030942;28;19921;-75
2022/07/07 10:57:01;;;;;;;;;;;16.40;99.90;;;;;;5029812;28;19917;-80
2022/07/07 10:59:27;;;;;;;;;;;16.40;99.90;;;;;;5031228;28;19963;-75
2022/07/07 11:02:12;;;;;;;;;;;16.60;99.90;;;;;;5029499;28;20007;-78
2022/07/07 11:04:41;;;;;;;;;;;16.80;99.90;;;;;;5030208;28;19917;-78
2022/07/07 11:07:14;;;;;;;;;;;17.20;99.90;;;;;;5030629;28;19923;-74
2022/07/07 11:09:58;;;;;;;;;;;17.30;99.90;;;;;;5028558;28;19924;-78
2022/07/07 11:12:43;;;;;;;;;;;16.70;99.90;;;;;;5031741;28;19947;-80
2022/07/07 11:15:30;;;;;;;;;;;16.20;99.90;;;;;;5030235;28;19917;-78
2022/07/07 11:17:56;;;;;;;;;;;16.00;99.90;;;;;;5029149;28;19917;-74
2022/07/07 11:20:22;;;;;;;;;;;16.00;99.90;;;;;;5030552;28;19925;-79
2022/07/07 11:22:52;;;;;;;;;;;16.10;99.90;;;;;;5030364;28;19924;-78
2022/07/07 11:25:19;;;;;;;;;;;16.30;99.90;;;;;;5003951;28;19956;-80
2022/07/07 11:27:45;;;;;;;;;;;16.40;99.90;;;;;;5031713;28;19921;-79
2022/07/07 11:30:11;;;;;;;;;;;16.50;99.90;;;;;;5029831;28;19921;-75
2022/07/07 11:32:42;;;;;;;;;;;16.60;99.90;;;;;;5044327;28;19917;-79
2022/07/07 11:35:08;;;;;;;;;;;16.70;99.90;;;;;;5031461;28;19917;-77
2022/07/07 11:37:35;;;;;;;;;;;16.90;99.90;;;;;;5029727;28;19929;-76
2022/07/07 11:40:01;;;;;;;;;;;17.10;99.90;;;;;;5029988;28;19924;-77
2022/07/07 11:42:33;;;;;;;;;;;17.40;99.90;;;;;;5029714;28;19917;-76
2022/07/07 11:44:58;;;;;;;;;;;17.60;99.90;;;;;;5027455;28;19917;-75
2022/07/07 11:47:24;;;;;;;;;;;17.60;99.90;;;;;;5028856;28;20209;-77
2022/07/07 11:49:52;;;;;;;;;;;17.50;99.90;;;;;;5028902;28;20028;-81
2022/07/07 11:52:21;;;;;;;;;;;17.40;99.90;;;;;;5030370;28;20043;-77
2022/07/07 11:54:48;;;;;;;;;;;17.40;99.90;;;;;;5025012;28;19957;-81
2022/07/07 11:57:26;;;;;;;;;;;17.60;99.90;;;;;;5025404;28;19917;-80
2022/07/07 11:59:52;;;;;;;;;;;17.70;99.90;;;;;;5028312;28;19923;-76
2022/07/07 12:02:18;;;;;;;;;;;17.90;99.90;;;;;;5030908;28;20532;-77
2022/07/07 12:04:44;;;;;;;;;;;17.90;99.90;;;;;;5030857;28;20468;-78
2022/07/07 12:07:10;;;;;;;;;;;17.70;99.90;;;;;;5025947;28;19972;-77
2022/07/07 12:09:36;;;;;;;;;;;17.70;99.90;;;;;;5029479;28;19960;-81
2022/07/07 12:12:02;;;;;;;;;;;17.60;99.90;;;;;;5028916;28;20328;-78
2022/07/07 12:14:27;;;;;;;;;;;17.70;99.90;;;;;;5030493;28;19921;-75
2022/07/07 12:16:53;;;;;;;;;;;17.70;99.90;;;;;;5030031;28;20012;-72
2022/07/07 12:19:18;;;;;;;;;;;17.70;99.90;;;;;;5028145;28;19956;-77
2022/07/07 12:21:45;;;;;;;;;;;17.60;99.90;;;;;;5030206;28;19924;-80
2022/07/07 12:24:12;;;;;;;;;;;17.60;99.90;;;;;;5027272;28;19917;-76
2022/07/07 12:26:47;;;;;;;;;;;17.50;99.90;;;;;;5022246;28;19924;-79
2022/07/07 12:29:12;;;;;;;;;;;17.60;99.90;;;;;;5018157;28;20633;-81
2022/07/07 12:31:38;;;;;;;;;;;17.80;99.90;;;;;;5029855;28;19917;-79
2022/07/07 12:34:14;;;;;;;;;;;18.50;99.90;;;;;;5028924;28;19974;-77
2022/07/07 12:36:40;;;;;;;;;;;18.50;99.90;;;;;;5028298;28;19917;-80
2022/07/07 12:39:06;;;;;;;;;;;17.90;99.90;;;;;;5025659;28;20216;-79
2022/07/07 12:41:36;;;;;;;;;;;17.70;99.90;;;;;;5030039;28;19960;-76
2022/07/07 12:44:15;;;;;;;;;;;17.70;99.90;;;;;;5027365;28;20353;-76
2022/07/07 12:46:42;;;;;;;;;;;17.60;99.90;;;;;;5041751;28;19917;-74
2022/07/07 12:49:07;;;;;;;;;;;17.70;99.90;;;;;;5028478;28;19964;-75
2022/07/07 12:51:33;;;;;;;;;;;17.60;99.90;;;;;;5019939;28;19941;-78
2022/07/07 12:53:59;;;;;;;;;;;17.50;99.90;;;;;;5028924;28;19917;-76
2022/07/07 12:56:35;;;;;;;;;;;17.50;99.90;;;;;;5023954;28;19920;-75
2022/07/07 12:59:13;;;;;;;;;;;17.50;99.90;;;;;;5027237;28;20572;-77
2022/07/07 13:01:38;;;;;;;;;;;17.40;99.90;;;;;;5024132;28;19917;-78
2022/07/07 13:04:04;;;;;;;;;;;17.30;99.90;;;;;;5030937;28;20636;-77
2022/07/07 13:06:29;;;;;;;;;;;17.30;99.90;;;;;;5025483;28;20420;-78
2022/07/07 13:08:55;;;;;;;;;;;17.40;99.90;;;;;;5030773;28;21849;-83
2022/07/07 13:11:20;;;;;;;;;;;17.40;99.90;;;;;;5026061;28;19949;-79
2022/07/07 13:13:46;;;;;;;;;;;17.60;99.90;;;;;;5022846;28;20004;-77
2022/07/07 13:16:12;;;;;;;;;;;17.70;99.90;;;;;;5027025;28;19952;-76
2022/07/07 13:18:38;;;;;;;;;;;17.80;99.90;;;;;;5028167;28;20326;-76
2022/07/07 13:21:04;;;;;;;;;;;17.70;99.90;;;;;;5030562;28;20111;-80
2022/07/07 13:23:31;;;;;;;;;;;17.70;99.90;;;;;;5018895;28;19921;-77
2022/07/07 13:25:57;;;;;;;;;;;17.80;99.90;;;;;;5029234;28;20002;-75
2022/07/07 13:28:24;;;;;;;;;;;17.60;99.90;;;;;;5032020;28;19920;-75
2022/07/07 13:30:50;;;;;;;;;;;17.50;99.90;;;;;;5038227;28;20015;-76
2022/07/07 13:33:16;;;;;;;;;;;17.30;99.90;;;;;;5026403;28;20012;-78
2022/07/07 13:35:41;;;;;;;;;;;17.20;99.90;;;;;;5024789;28;19918;-78
2022/07/07 13:38:07;;;;;;;;;;;17.20;99.90;;;;;;5016295;28;19924;-76
2022/07/07 13:40:32;;;;;;;;;;;17.20;99.90;;;;;;5027479;28;19924;-77
2022/07/07 13:42:58;;;;;;;;;;;17.20;99.90;;;;;;5026772;28;20491;-78
2022/07/07 13:45:24;;;;;;;;;;;17.30;99.90;;;;;;5020211;28;20007;-79
2022/07/07 13:47:49;;;;;;;;;;;17.50;99.90;;;;;;5027719;28;19920;-78
2022/07/07 13:50:15;;;;;;;;;;;17.70;99.90;;;;;;5028706;28;19921;-76
2022/07/07 13:52:41;;;;;;;;;;;17.80;99.90;;;;;;5021880;28;19922;-77
2022/07/07 13:55:06;;;;;;;;;;;17.80;99.90;;;;;;5026221;28;19913;-76
2022/07/07 13:57:33;;;;;;;;;;;17.60;99.90;;;;;;5019420;28;19921;-76
2022/07/07 14:00:00;;;;;;;;;;;17.30;99.90;;;;;;5026689;28;19913;-76
2022/07/07 14:02:26;;;;;;;;;;;17.10;99.90;;;;;;5032856;28;19929;-77
2022/07/07 14:04:52;;;;;;;;;;;17.10;99.90;;;;;;5031668;28;20015;-80
2022/07/07 14:07:18;;;;;;;;;;;17.30;99.90;;;;;;5027747;28;19914;-80
2022/07/07 14:09:43;;;;;;;;;;;17.40;99.90;;;;;;5021227;28;20313;-78
2022/07/07 14:12:09;;;;;;;;;;;17.60;99.90;;;;;;5027964;28;20303;-77
2022/07/07 14:14:35;;;;;;;;;;;17.60;99.90;;;;;;5021202;28;19963;-78
2022/07/07 14:17:01;;;;;;;;;;;17.70;99.90;;;;;;5033582;28;19923;-78
2022/07/07 14:19:26;;;;;;;;;;;17.60;99.90;;;;;;5021243;28;19972;-74